sensor_id;sensor_type;location;lat;lon;timestamp;pressure;altitude;pressure_sealevel;temperature;humidity
9335;BME280;4706;41.844;26.082;2022-08-03T00:00:40;100562.31;;;28.89;41.39
9335;BME280;4706;41.844;26.082;2022-08-03T00:03:05;100563.03;;;28.97;41.26
9335;BME280;4706;41.844;26.082;2022-08-03T00:05:32;100569.63;;;28.87;41.44
9335;BME280;4706;41.844;26.082;2022-08-03T00:07:59;100569.41;;;28.74;41.58
9335;BME280;4706;41.844;26.082;2022-08-03T00:10:25;100566.69;;;28.67;41.77
9335;BME280;4706;41.844;26.082;2022-08-03T00:12:52;100569.66;;;28.56;42.19
9335;BME280;4706;41.844;26.082;2022-08-03T00:15:18;100556.31;;;28.56;42.42
9335;BME280;4706;41.844;26.082;2022-08-03T00:17:44;100566.38;;;28.58;42.09
9335;BME280;4706;41.844;26.082;2022-08-03T00:20:10;100566.91;;;28.49;42.35
9335;BME280;4706;41.844;26.082;2022-08-03T00:22:36;100556.34;;;28.53;42.08
9335;BME280;4706;41.844;26.082;2022-08-03T00:25:02;100559.22;;;28.49;41.98
9335;BME280;4706;41.844;26.082;2022-08-03T00:27:28;100558.91;;;28.44;42.47
9335;BME280;4706;41.844;26.082;2022-08-03T00:29:53;100558.91;;;28.44;42.61
9335;BME280;4706;41.844;26.082;2022-08-03T00:32:19;100574.31;;;28.39;42.74
9335;BME280;4706;41.844;26.082;2022-08-03T00:34:45;100564.22;;;28.38;42.75
9335;BME280;4706;41.844;26.082;2022-08-03T00:37:10;100573.59;;;28.28;42.61
9335;BME280;4706;41.844;26.082;2022-08-03T00:39:35;100573.28;;;28.22;42.56
9335;BME280;4706;41.844;26.082;2022-08-03T00:42:02;100575.00;;;28.13;42.72
9335;BME280;4706;41.844;26.082;2022-08-03T00:44:28;100572.34;;;27.98;43.16
9335;BME280;4706;41.844;26.082;2022-08-03T00:46:54;100576.72;;;28.03;43.58
9335;BME280;4706;41.844;26.082;2022-08-03T00:49:19;100578.34;;;28.04;43.57
9335;BME280;4706;41.844;26.082;2022-08-03T00:51:45;100579.59;;;27.99;43.38
9335;BME280;4706;41.844;26.082;2022-08-03T00:54:11;100578.84;;;27.95;43.49
9335;BME280;4706;41.844;26.082;2022-08-03T00:56:37;100578.91;;;27.88;43.55
9335;BME280;4706;41.844;26.082;2022-08-03T00:59:03;100567.28;;;27.79;43.73
9335;BME280;4706;41.844;26.082;2022-08-03T01:01:29;100572.50;;;27.84;43.76
9335;BME280;4706;41.844;26.082;2022-08-03T01:03:54;100561.66;;;27.72;43.70
9335;BME280;4706;41.844;26.082;2022-08-03T01:06:35;100570.13;;;27.72;44.02
9335;BME280;4706;41.844;26.082;2022-08-03T01:09:20;100572.16;;;27.71;44.16
9335;BME280;4706;41.844;26.082;2022-08-03T01:14:54;100570.91;;;27.79;44.45
9335;BME280;4706;41.844;26.082;2022-08-03T01:20:13;100565.72;;;27.71;44.12
9335;BME280;4706;41.844;26.082;2022-08-03T01:23:02;100573.44;;;27.67;44.44
9335;BME280;4706;41.844;26.082;2022-08-03T01:31:04;100575.44;;;27.66;44.74
9335;BME280;4706;41.844;26.082;2022-08-03T01:33:41;100567.41;;;27.65;44.71
9335;BME280;4706;41.844;26.082;2022-08-03T01:36:15;100570.63;;;27.63;44.59
9335;BME280;4706;41.844;26.082;2022-08-03T01:38:44;100573.88;;;27.62;44.81
9335;BME280;4706;41.844;26.082;2022-08-03T01:41:13;100570.22;;;27.65;44.82
9335;BME280;4706;41.844;26.082;2022-08-03T01:43:41;100577.16;;;27.56;44.66
9335;BME280;4706;41.844;26.082;2022-08-03T01:46:08;100586.06;;;27.55;45.01
9335;BME280;4706;41.844;26.082;2022-08-03T01:48:38;100578.06;;;27.46;44.93
9335;BME280;4706;41.844;26.082;2022-08-03T01:51:07;100580.88;;;27.46;45.30
9335;BME280;4706;41.844;26.082;2022-08-03T01:53:33;100574.81;;;27.48;45.50
9335;BME280;4706;41.844;26.082;2022-08-03T01:56:01;100580.50;;;27.41;45.74
9335;BME280;4706;41.844;26.082;2022-08-03T01:58:28;100576.50;;;27.38;45.99
9335;BME280;4706;41.844;26.082;2022-08-03T02:00:55;100581.78;;;27.36;46.04
9335;BME280;4706;41.844;26.082;2022-08-03T02:03:26;100579.44;;;27.24;46.23
9335;BME280;4706;41.844;26.082;2022-08-03T02:05:54;100580.25;;;27.24;45.83
9335;BME280;4706;41.844;26.082;2022-08-03T02:08:23;100577.44;;;27.21;45.64
9335;BME280;4706;41.844;26.082;2022-08-03T02:10:50;100585.06;;;27.27;45.51
9335;BME280;4706;41.844;26.082;2022-08-03T02:13:18;100585.16;;;27.17;45.53
9335;BME280;4706;41.844;26.082;2022-08-03T02:15:45;100577.50;;;27.10;45.81
9335;BME280;4706;41.844;26.082;2022-08-03T02:18:12;100577.59;;;26.96;45.90
9335;BME280;4706;41.844;26.082;2022-08-03T02:20:40;100580.03;;;26.94;46.27
9335;BME280;4706;41.844;26.082;2022-08-03T02:23:07;100583.63;;;26.98;46.21
9335;BME280;4706;41.844;26.082;2022-08-03T02:25:47;100577.16;;;27.04;46.26
9335;BME280;4706;41.844;26.082;2022-08-03T02:28:18;100577.19;;;26.97;46.16
9335;BME280;4706;41.844;26.082;2022-08-03T02:30:46;100584.44;;;26.98;46.33
9335;BME280;4706;41.844;26.082;2022-08-03T02:33:21;100581.63;;;26.95;46.42
9335;BME280;4706;41.844;26.082;2022-08-03T02:35:50;100580.81;;;26.98;46.85
9335;BME280;4706;41.844;26.082;2022-08-03T02:38:19;100588.84;;;26.99;46.50
9335;BME280;4706;41.844;26.082;2022-08-03T02:40:45;100583.94;;;27.10;46.54
9335;BME280;4706;41.844;26.082;2022-08-03T02:43:17;100589.22;;;27.12;46.36
9335;BME280;4706;41.844;26.082;2022-08-03T02:45:46;100586.78;;;27.07;46.54
9335;BME280;4706;41.844;26.082;2022-08-03T02:48:16;100594.84;;;27.08;46.43
9335;BME280;4706;41.844;26.082;2022-08-03T02:50:44;100588.81;;;27.06;46.48
9335;BME280;4706;41.844;26.082;2022-08-03T02:53:11;100588.00;;;27.06;46.17
9335;BME280;4706;41.844;26.082;2022-08-03T02:55:38;100598.91;;;27.04;46.60
9335;BME280;4706;41.844;26.082;2022-08-03T02:58:05;100591.69;;;26.96;46.92
9335;BME280;4706;41.844;26.082;2022-08-03T03:00:32;100597.78;;;26.94;46.79
9335;BME280;4706;41.844;26.082;2022-08-03T03:03:00;100592.09;;;27.01;47.10
9335;BME280;4706;41.844;26.082;2022-08-03T03:05:29;100589.25;;;27.01;47.05
9335;BME280;4706;41.844;26.082;2022-08-03T03:07:56;100593.75;;;26.88;47.13
9335;BME280;4706;41.844;26.082;2022-08-03T03:10:22;100604.22;;;26.91;46.98
9335;BME280;4706;41.844;26.082;2022-08-03T03:12:58;100603.41;;;26.98;47.14
9335;BME280;4706;41.844;26.082;2022-08-03T03:15:27;100590.91;;;26.95;47.49
9335;BME280;4706;41.844;26.082;2022-08-03T03:17:53;100600.59;;;26.94;47.60
9335;BME280;4706;41.844;26.082;2022-08-03T03:20:20;100603.81;;;26.93;47.54
9335;BME280;4706;41.844;26.082;2022-08-03T03:22:47;100588.56;;;26.79;47.83
9335;BME280;4706;41.844;26.082;2022-08-03T03:25:14;100603.44;;;26.87;47.84
9335;BME280;4706;41.844;26.082;2022-08-03T03:27:40;100605.06;;;26.88;47.86
9335;BME280;4706;41.844;26.082;2022-08-03T03:30:07;100601.09;;;26.75;48.14
9335;BME280;4706;41.844;26.082;2022-08-03T03:32:33;100612.78;;;26.77;47.73
9335;BME280;4706;41.844;26.082;2022-08-03T03:35:01;100605.19;;;26.63;47.80
9335;BME280;4706;41.844;26.082;2022-08-03T03:37:29;100613.69;;;26.59;47.92
9335;BME280;4706;41.844;26.082;2022-08-03T03:39:54;100617.69;;;26.58;47.99
9335;BME280;4706;41.844;26.082;2022-08-03T03:42:21;100622.16;;;26.56;48.15
9335;BME280;4706;41.844;26.082;2022-08-03T03:44:47;100623.75;;;26.53;47.85
9335;BME280;4706;41.844;26.082;2022-08-03T03:47:13;100627.38;;;26.54;47.81
9335;BME280;4706;41.844;26.082;2022-08-03T03:49:39;100628.16;;;26.61;47.86
9335;BME280;4706;41.844;26.082;2022-08-03T03:52:05;100619.69;;;26.61;47.92
9335;BME280;4706;41.844;26.082;2022-08-03T03:54:44;100626.91;;;26.70;47.83
9335;BME280;4706;41.844;26.082;2022-08-03T03:57:10;100624.50;;;26.72;47.88
9335;BME280;4706;41.844;26.082;2022-08-03T03:59:37;100633.31;;;26.77;47.69
9335;BME280;4706;41.844;26.082;2022-08-03T04:02:05;100638.53;;;26.86;47.80
9335;BME280;4706;41.844;26.082;2022-08-03T04:04:31;100634.84;;;26.96;47.63
9335;BME280;4706;41.844;26.082;2022-08-03T04:07:17;100636.41;;;27.11;47.18
9335;BME280;4706;41.844;26.082;2022-08-03T04:10:11;100637.09;;;27.26;46.59
9335;BME280;4706;41.844;26.082;2022-08-03T04:12:58;100638.25;;;27.36;46.71
9335;BME280;4706;41.844;26.082;2022-08-03T04:15:27;100638.97;;;27.47;46.62
9335;BME280;4706;41.844;26.082;2022-08-03T04:17:56;100647.75;;;27.60;46.19
9335;BME280;4706;41.844;26.082;2022-08-03T04:20:26;100636.38;;;27.71;45.71
9335;BME280;4706;41.844;26.082;2022-08-03T04:22:53;100644.72;;;27.89;45.63
9335;BME280;4706;41.844;26.082;2022-08-03T04:25:22;100641.00;;;27.99;45.41
9335;BME280;4706;41.844;26.082;2022-08-03T04:27:49;100644.38;;;28.21;44.66
9335;BME280;4706;41.844;26.082;2022-08-03T04:30:17;100639.38;;;28.36;44.59
9335;BME280;4706;41.844;26.082;2022-08-03T04:32:43;100649.28;;;28.54;44.46
9335;BME280;4706;41.844;26.082;2022-08-03T04:35:15;100634.31;;;28.58;44.22
9335;BME280;4706;41.844;26.082;2022-08-03T04:37:42;100637.81;;;28.69;43.79
9335;BME280;4706;41.844;26.082;2022-08-03T04:42:58;100634.59;;;28.97;43.16
9335;BME280;4706;41.844;26.082;2022-08-03T04:45:24;100639.47;;;28.97;43.24
9335;BME280;4706;41.844;26.082;2022-08-03T04:47:51;100612.34;;;28.69;43.67
9335;BME280;4706;41.844;26.082;2022-08-03T04:50:18;100645.31;;;28.83;43.74
9335;BME280;4706;41.844;26.082;2022-08-03T04:52:44;100643.03;;;28.74;43.78
9335;BME280;4706;41.844;26.082;2022-08-03T04:55:09;100650.47;;;28.91;43.86
9335;BME280;4706;41.844;26.082;2022-08-03T04:57:35;100656.00;;;29.02;43.65
9335;BME280;4706;41.844;26.082;2022-08-03T05:00:01;100652.28;;;29.09;43.15
9335;BME280;4706;41.844;26.082;2022-08-03T05:02:26;100659.44;;;29.17;43.05
9335;BME280;4706;41.844;26.082;2022-08-03T05:04:52;100660.69;;;29.16;42.97
9335;BME280;4706;41.844;26.082;2022-08-03T05:07:17;100663.81;;;29.21;43.00
9335;BME280;4706;41.844;26.082;2022-08-03T05:09:43;100664.06;;;29.34;42.62
9335;BME280;4706;41.844;26.082;2022-08-03T05:12:09;100663.22;;;29.34;42.54
9335;BME280;4706;41.844;26.082;2022-08-03T05:14:36;100657.56;;;29.34;42.50
9335;BME280;4706;41.844;26.082;2022-08-03T05:17:03;100673.59;;;29.44;42.68
9335;BME280;4706;41.844;26.082;2022-08-03T05:19:29;100662.91;;;29.28;43.11
9335;BME280;4706;41.844;26.082;2022-08-03T05:21:54;100671.72;;;29.34;43.32
9335;BME280;4706;41.844;26.082;2022-08-03T05:24:20;100673.41;;;29.31;43.33
9335;BME280;4706;41.844;26.082;2022-08-03T05:26:45;100673.75;;;29.33;43.61
9335;BME280;4706;41.844;26.082;2022-08-03T05:29:11;100663.72;;;29.28;43.46
9335;BME280;4706;41.844;26.082;2022-08-03T05:31:37;100660.19;;;29.21;43.75
9335;BME280;4706;41.844;26.082;2022-08-03T05:34:02;100677.41;;;29.34;43.69
9335;BME280;4706;41.844;26.082;2022-08-03T05:36:28;100665.59;;;29.39;43.86
9335;BME280;4706;41.844;26.082;2022-08-03T05:38:53;100671.28;;;29.39;43.53
9335;BME280;4706;41.844;26.082;2022-08-03T05:41:19;100672.00;;;29.43;43.91
9335;BME280;4706;41.844;26.082;2022-08-03T05:43:44;100673.16;;;29.49;43.63
9335;BME280;4706;41.844;26.082;2022-08-03T05:46:10;100663.25;;;29.61;44.06
9335;BME280;4706;41.844;26.082;2022-08-03T05:48:37;100667.34;;;29.83;43.58
9335;BME280;4706;41.844;26.082;2022-08-03T05:51:02;100656.56;;;29.98;42.93
9335;BME280;4706;41.844;26.082;2022-08-03T05:53:33;100666.97;;;30.28;42.91
9335;BME280;4706;41.844;26.082;2022-08-03T05:55:59;100672.06;;;30.57;42.56
9335;BME280;4706;41.844;26.082;2022-08-03T05:58:24;100676.75;;;30.87;41.97
9335;BME280;4706;41.844;26.082;2022-08-03T06:00:51;100668.41;;;31.16;41.39
9335;BME280;4706;41.844;26.082;2022-08-03T06:03:16;100666.78;;;31.35;41.02
9335;BME280;4706;41.844;26.082;2022-08-03T06:05:42;100669.84;;;31.60;40.32
9335;BME280;4706;41.844;26.082;2022-08-03T06:08:07;100666.53;;;31.78;40.52
9335;BME280;4706;41.844;26.082;2022-08-03T06:10:33;100676.88;;;32.05;40.35
9335;BME280;4706;41.844;26.082;2022-08-03T06:12:58;100666.16;;;32.25;39.96
9335;BME280;4706;41.844;26.082;2022-08-03T06:15:24;100659.47;;;32.32;39.63
9335;BME280;4706;41.844;26.082;2022-08-03T06:17:50;100670.28;;;32.53;39.28
9335;BME280;4706;41.844;26.082;2022-08-03T06:20:17;100676.16;;;32.75;39.12
9335;BME280;4706;41.844;26.082;2022-08-03T06:22:44;100681.34;;;32.93;38.03
9335;BME280;4706;41.844;26.082;2022-08-03T06:25:09;100666.59;;;32.82;38.05
9335;BME280;4706;41.844;26.082;2022-08-03T06:27:35;100671.19;;;32.92;38.14
9335;BME280;4706;41.844;26.082;2022-08-03T06:30:09;100673.06;;;33.11;37.70
9335;BME280;4706;41.844;26.082;2022-08-03T06:32:36;100665.19;;;33.28;37.17
9335;BME280;4706;41.844;26.082;2022-08-03T06:35:02;100671.84;;;33.51;37.26
9335;BME280;4706;41.844;26.082;2022-08-03T06:37:28;100660.63;;;33.69;35.75
9335;BME280;4706;41.844;26.082;2022-08-03T06:39:54;100669.94;;;33.95;33.89
9335;BME280;4706;41.844;26.082;2022-08-03T06:42:19;100659.25;;;33.74;34.17
9335;BME280;4706;41.844;26.082;2022-08-03T06:44:45;100666.78;;;33.80;34.50
9335;BME280;4706;41.844;26.082;2022-08-03T06:47:11;100672.84;;;33.82;33.21
9335;BME280;4706;41.844;26.082;2022-08-03T06:49:36;100661.47;;;33.57;31.62
9335;BME280;4706;41.844;26.082;2022-08-03T06:52:03;100667.63;;;33.68;31.63
9335;BME280;4706;41.844;26.082;2022-08-03T06:54:28;100663.38;;;33.86;30.58
9335;BME280;4706;41.844;26.082;2022-08-03T06:56:54;100661.50;;;33.92;30.22
9335;BME280;4706;41.844;26.082;2022-08-03T06:59:20;100661.00;;;34.19;29.46
9335;BME280;4706;41.844;26.082;2022-08-03T07:01:45;100657.03;;;34.16;28.51
9335;BME280;4706;41.844;26.082;2022-08-03T07:04:11;100664.06;;;34.24;29.47
9335;BME280;4706;41.844;26.082;2022-08-03T07:06:37;100662.63;;;34.07;27.56
9335;BME280;4706;41.844;26.082;2022-08-03T07:09:03;100665.34;;;34.23;27.09
9335;BME280;4706;41.844;26.082;2022-08-03T07:11:29;100652.97;;;34.48;26.77
9335;BME280;4706;41.844;26.082;2022-08-03T07:13:54;100650.06;;;34.39;26.40
9335;BME280;4706;41.844;26.082;2022-08-03T07:16:21;100657.75;;;34.29;26.56
9335;BME280;4706;41.844;26.082;2022-08-03T07:18:47;100668.06;;;34.27;27.07
9335;BME280;4706;41.844;26.082;2022-08-03T07:21:13;100654.63;;;34.49;27.07
9335;BME280;4706;41.844;26.082;2022-08-03T07:23:40;100649.50;;;34.66;25.86
9335;BME280;4706;41.844;26.082;2022-08-03T07:26:05;100659.25;;;34.78;26.10
9335;BME280;4706;41.844;26.082;2022-08-03T07:28:31;100661.63;;;35.01;26.39
9335;BME280;4706;41.844;26.082;2022-08-03T07:30:57;100658.16;;;35.38;26.31
9335;BME280;4706;41.844;26.082;2022-08-03T07:33:23;100656.38;;;35.62;24.98
9335;BME280;4706;41.844;26.082;2022-08-03T07:35:49;100663.19;;;35.65;25.00
9335;BME280;4706;41.844;26.082;2022-08-03T07:38:15;100654.97;;;35.85;25.31
9335;BME280;4706;41.844;26.082;2022-08-03T07:40:41;100662.19;;;36.17;25.00
9335;BME280;4706;41.844;26.082;2022-08-03T07:43:06;100661.88;;;36.43;24.89
9335;BME280;4706;41.844;26.082;2022-08-03T07:45:32;100666.78;;;36.70;24.64
9335;BME280;4706;41.844;26.082;2022-08-03T07:47:58;100667.72;;;36.85;24.07
9335;BME280;4706;41.844;26.082;2022-08-03T07:50:24;100671.19;;;37.08;23.65
9335;BME280;4706;41.844;26.082;2022-08-03T07:52:50;100663.53;;;37.14;23.07
9335;BME280;4706;41.844;26.082;2022-08-03T07:55:19;100670.91;;;36.87;23.54
9335;BME280;4706;41.844;26.082;2022-08-03T07:57:46;100681.91;;;36.80;23.68
9335;BME280;4706;41.844;26.082;2022-08-03T08:00:17;100669.50;;;36.09;24.44
9335;BME280;4706;41.844;26.082;2022-08-03T08:02:44;100659.59;;;35.83;24.89
9335;BME280;4706;41.844;26.082;2022-08-03T08:05:10;100675.41;;;36.15;25.19
9335;BME280;4706;41.844;26.082;2022-08-03T08:07:37;100661.88;;;36.52;25.38
9335;BME280;4706;41.844;26.082;2022-08-03T08:10:05;100655.16;;;36.83;25.00
9335;BME280;4706;41.844;26.082;2022-08-03T08:12:31;100656.03;;;37.16;24.93
9335;BME280;4706;41.844;26.082;2022-08-03T08:14:57;100660.88;;;37.43;24.01
9335;BME280;4706;41.844;26.082;2022-08-03T08:17:22;100664.28;;;37.66;24.26
9335;BME280;4706;41.844;26.082;2022-08-03T08:19:48;100664.22;;;37.42;23.91
9335;BME280;4706;41.844;26.082;2022-08-03T08:22:13;100655.50;;;37.27;24.44
9335;BME280;4706;41.844;26.082;2022-08-03T08:24:39;100669.88;;;37.60;24.46
9335;BME280;4706;41.844;26.082;2022-08-03T08:27:04;100658.59;;;37.81;24.06
9335;BME280;4706;41.844;26.082;2022-08-03T08:29:30;100660.56;;;37.99;24.13
9335;BME280;4706;41.844;26.082;2022-08-03T08:31:55;100645.47;;;38.13;23.81
9335;BME280;4706;41.844;26.082;2022-08-03T08:34:21;100656.69;;;38.26;24.19
9335;BME280;4706;41.844;26.082;2022-08-03T08:36:46;100664.88;;;38.42;23.64
9335;BME280;4706;41.844;26.082;2022-08-03T08:39:12;100632.38;;;38.51;23.09
9335;BME280;4706;41.844;26.082;2022-08-03T08:41:38;100650.72;;;38.53;22.81
9335;BME280;4706;41.844;26.082;2022-08-03T08:44:04;100647.94;;;38.59;23.13
9335;BME280;4706;41.844;26.082;2022-08-03T08:46:32;100656.38;;;38.77;22.99
9335;BME280;4706;41.844;26.082;2022-08-03T08:48:58;100649.25;;;38.88;22.81
9335;BME280;4706;41.844;26.082;2022-08-03T08:51:30;100651.72;;;39.09;22.32
9335;BME280;4706;41.844;26.082;2022-08-03T08:54:00;100654.78;;;39.36;22.21
9335;BME280;4706;41.844;26.082;2022-08-03T08:56:26;100649.25;;;39.32;21.97
9335;BME280;4706;41.844;26.082;2022-08-03T08:58:57;100653.28;;;39.40;22.38
9335;BME280;4706;41.844;26.082;2022-08-03T09:01:23;100655.31;;;39.54;22.17
9335;BME280;4706;41.844;26.082;2022-08-03T09:03:49;100639.84;;;39.52;22.02
9335;BME280;4706;41.844;26.082;2022-08-03T09:06:15;100633.88;;;39.55;21.60
9335;BME280;4706;41.844;26.082;2022-08-03T09:08:41;100634.94;;;39.73;21.95
9335;BME280;4706;41.844;26.082;2022-08-03T09:11:07;100638.09;;;39.95;21.51
9335;BME280;4706;41.844;26.082;2022-08-03T09:13:34;100625.94;;;40.06;21.34
9335;BME280;4706;41.844;26.082;2022-08-03T09:16:13;100621.41;;;39.99;21.00
9335;BME280;4706;41.844;26.082;2022-08-03T09:18:40;100629.75;;;39.97;21.13
9335;BME280;4706;41.844;26.082;2022-08-03T09:23:54;100612.97;;;38.75;21.67
9335;BME280;4706;41.844;26.082;2022-08-03T09:26:27;100616.13;;;38.62;22.29
9335;BME280;4706;41.844;26.082;2022-08-03T09:28:59;100623.69;;;38.90;22.23
9335;BME280;4706;41.844;26.082;2022-08-03T09:31:34;100621.47;;;38.99;21.38
9335;BME280;4706;41.844;26.082;2022-08-03T09:34:02;100606.19;;;39.08;21.67
9335;BME280;4706;41.844;26.082;2022-08-03T09:36:50;100625.22;;;39.35;21.63
9335;BME280;4706;41.844;26.082;2022-08-03T09:39:20;100609.91;;;39.64;21.06
9335;BME280;4706;41.844;26.082;2022-08-03T09:42:03;100602.31;;;39.81;20.53
9335;BME280;4706;41.844;26.082;2022-08-03T09:44:36;100609.69;;;39.68;21.09
9335;BME280;4706;41.844;26.082;2022-08-03T09:47:03;100617.16;;;39.95;20.50
9335;BME280;4706;41.844;26.082;2022-08-03T09:49:29;100602.22;;;40.17;21.07
9335;BME280;4706;41.844;26.082;2022-08-03T09:51:55;100614.31;;;40.47;20.15
9335;BME280;4706;41.844;26.082;2022-08-03T09:54:29;100609.63;;;40.70;19.99
9335;BME280;4706;41.844;26.082;2022-08-03T09:56:55;100604.94;;;41.04;19.93
9335;BME280;4706;41.844;26.082;2022-08-03T09:59:30;100606.44;;;41.31;19.55
9335;BME280;4706;41.844;26.082;2022-08-03T10:01:56;100598.44;;;41.52;18.88
9335;BME280;4706;41.844;26.082;2022-08-03T10:04:24;100588.81;;;41.23;18.76
9335;BME280;4706;41.844;26.082;2022-08-03T10:07:03;100594.09;;;40.41;19.70
9335;BME280;4706;41.844;26.082;2022-08-03T10:09:29;100588.63;;;40.43;20.23
9335;BME280;4706;41.844;26.082;2022-08-03T10:11:55;100595.53;;;40.05;20.10
9335;BME280;4706;41.844;26.082;2022-08-03T10:14:21;100580.22;;;40.14;19.48
9335;BME280;4706;41.844;26.082;2022-08-03T10:16:48;100583.56;;;40.33;19.66
9335;BME280;4706;41.844;26.082;2022-08-03T10:19:15;100577.53;;;40.62;19.69
9335;BME280;4706;41.844;26.082;2022-08-03T10:21:54;100586.63;;;40.81;19.22
9335;BME280;4706;41.844;26.082;2022-08-03T10:24:24;100571.59;;;40.71;19.40
9335;BME280;4706;41.844;26.082;2022-08-03T10:26:53;100574.94;;;40.38;19.25
9335;BME280;4706;41.844;26.082;2022-08-03T10:29:23;100569.84;;;40.53;19.43
9335;BME280;4706;41.844;26.082;2022-08-03T10:31:55;100577.56;;;40.94;19.26
9335;BME280;4706;41.844;26.082;2022-08-03T10:34:25;100565.72;;;41.23;19.17
9335;BME280;4706;41.844;26.082;2022-08-03T10:36:52;100577.47;;;41.63;18.20
9335;BME280;4706;41.844;26.082;2022-08-03T10:39:25;100575.94;;;41.24;17.84
9335;BME280;4706;41.844;26.082;2022-08-03T10:41:52;100567.75;;;41.17;18.82
9335;BME280;4706;41.844;26.082;2022-08-03T10:44:23;100578.72;;;40.76;18.53
9335;BME280;4706;41.844;26.082;2022-08-03T10:46:50;100557.44;;;40.42;19.03
9335;BME280;4706;41.844;26.082;2022-08-03T10:49:18;100566.59;;;40.66;19.14
9335;BME280;4706;41.844;26.082;2022-08-03T10:51:45;100563.16;;;40.36;19.10
9335;BME280;4706;41.844;26.082;2022-08-03T10:57:01;100560.56;;;39.71;20.62
9335;BME280;4706;41.844;26.082;2022-08-03T11:02:12;100550.75;;;39.63;20.02
9335;BME280;4706;41.844;26.082;2022-08-03T11:04:39;100550.38;;;39.96;19.89
9335;BME280;4706;41.844;26.082;2022-08-03T11:07:22;100550.34;;;40.43;19.07
9335;BME280;4706;41.844;26.082;2022-08-03T11:09:53;100543.81;;;40.16;19.18
9335;BME280;4706;41.844;26.082;2022-08-03T11:12:29;100552.88;;;40.09;18.93
9335;BME280;4706;41.844;26.082;2022-08-03T11:14:57;100551.69;;;39.54;19.24
9335;BME280;4706;41.844;26.082;2022-08-03T11:17:23;100555.84;;;38.98;20.25
9335;BME280;4706;41.844;26.082;2022-08-03T11:19:50;100559.91;;;38.76;20.30
9335;BME280;4706;41.844;26.082;2022-08-03T11:22:16;100552.19;;;38.97;20.10
9335;BME280;4706;41.844;26.082;2022-08-03T11:30:14;100535.41;;;39.92;19.10
9335;BME280;4706;41.844;26.082;2022-08-03T11:32:51;100533.84;;;39.91;19.28
9335;BME280;4706;41.844;26.082;2022-08-03T11:35:30;100538.31;;;39.92;19.89
9335;BME280;4706;41.844;26.082;2022-08-03T11:40:50;100543.13;;;39.60;19.88
9335;BME280;4706;41.844;26.082;2022-08-03T11:46:04;100544.38;;;39.53;19.49
9335;BME280;4706;41.844;26.082;2022-08-03T11:48:34;100531.13;;;39.82;19.20
9335;BME280;4706;41.844;26.082;2022-08-03T11:51:01;100531.88;;;40.03;18.37
9335;BME280;4706;41.844;26.082;2022-08-03T11:53:27;100518.53;;;40.05;18.34
9335;BME280;4706;41.844;26.082;2022-08-03T11:55:57;100519.34;;;40.32;18.64
9335;BME280;4706;41.844;26.082;2022-08-03T11:58:23;100517.91;;;40.48;18.40
9335;BME280;4706;41.844;26.082;2022-08-03T12:00:50;100512.78;;;40.58;18.85
9335;BME280;4706;41.844;26.082;2022-08-03T12:03:18;100519.47;;;40.75;17.69
9335;BME280;4706;41.844;26.082;2022-08-03T12:08:14;100503.09;;;40.09;19.01
9335;BME280;4706;41.844;26.082;2022-08-03T12:10:45;100509.91;;;40.32;18.67
9335;BME280;4706;41.844;26.082;2022-08-03T12:13:11;100504.97;;;40.64;19.07
9335;BME280;4706;41.844;26.082;2022-08-03T12:15:38;100499.13;;;40.90;18.23
9335;BME280;4706;41.844;26.082;2022-08-03T12:18:14;100496.88;;;41.05;18.40
9335;BME280;4706;41.844;26.082;2022-08-03T12:20:40;100500.53;;;41.06;18.11
9335;BME280;4706;41.844;26.082;2022-08-03T12:23:06;100490.91;;;40.45;18.05
9335;BME280;4706;41.844;26.082;2022-08-03T12:25:33;100491.69;;;40.14;18.23
9335;BME280;4706;41.844;26.082;2022-08-03T12:28:16;100487.47;;;39.89;18.58
9335;BME280;4706;41.844;26.082;2022-08-03T12:30:51;100481.94;;;39.86;18.84
9335;BME280;4706;41.844;26.082;2022-08-03T12:33:25;100484.69;;;40.00;17.92
9335;BME280;4706;41.844;26.082;2022-08-03T12:36:06;100476.06;;;39.74;19.08
9335;BME280;4706;41.844;26.082;2022-08-03T12:38:34;100468.72;;;39.73;18.72
9335;BME280;4706;41.844;26.082;2022-08-03T12:41:05;100465.84;;;39.53;18.76
9335;BME280;4706;41.844;26.082;2022-08-03T12:43:33;100470.66;;;39.62;18.67
9335;BME280;4706;41.844;26.082;2022-08-03T12:46:07;100473.53;;;39.21;19.13
9335;BME280;4706;41.844;26.082;2022-08-03T12:48:33;100477.63;;;38.79;19.37
9335;BME280;4706;41.844;26.082;2022-08-03T12:51:09;100459.66;;;38.49;19.42
9335;BME280;4706;41.844;26.082;2022-08-03T12:53:35;100467.16;;;38.61;19.55
9335;BME280;4706;41.844;26.082;2022-08-03T12:56:02;100466.81;;;38.74;19.84
9335;BME280;4706;41.844;26.082;2022-08-03T12:58:33;100451.44;;;38.92;20.22
9335;BME280;4706;41.844;26.082;2022-08-03T13:00:59;100454.13;;;39.16;19.23
9335;BME280;4706;41.844;26.082;2022-08-03T13:03:25;100449.47;;;38.83;19.06
9335;BME280;4706;41.844;26.082;2022-08-03T13:05:50;100453.97;;;38.54;19.62
9335;BME280;4706;41.844;26.082;2022-08-03T13:08:20;100455.78;;;38.52;20.28
9335;BME280;4706;41.844;26.082;2022-08-03T13:10:46;100449.25;;;38.22;20.12
9335;BME280;4706;41.844;26.082;2022-08-03T13:13:12;100440.47;;;38.10;20.88
9335;BME280;4706;41.844;26.082;2022-08-03T13:15:38;100454.31;;;38.12;19.77
9335;BME280;4706;41.844;26.082;2022-08-03T13:18:04;100462.84;;;37.92;20.34
9335;BME280;4706;41.844;26.082;2022-08-03T13:20:30;100451.41;;;37.82;21.08
9335;BME280;4706;41.844;26.082;2022-08-03T13:22:56;100451.13;;;37.95;20.90
9335;BME280;4706;41.844;26.082;2022-08-03T13:25:22;100453.28;;;37.85;20.86
9335;BME280;4706;41.844;26.082;2022-08-03T13:27:47;100437.34;;;37.84;20.75
9335;BME280;4706;41.844;26.082;2022-08-03T13:30:14;100443.56;;;37.68;21.47
9335;BME280;4706;41.844;26.082;2022-08-03T13:32:40;100436.56;;;37.69;21.68
9335;BME280;4706;41.844;26.082;2022-08-03T13:35:07;100438.25;;;37.90;21.44
9335;BME280;4706;41.844;26.082;2022-08-03T13:37:34;100447.78;;;37.97;21.28
9335;BME280;4706;41.844;26.082;2022-08-03T13:40:01;100440.53;;;38.01;21.01